sensor_id;sensor_type;location;lat;lon;timestamp;P1;durP1;ratioP1;P2;durP2;ratioP2
27333;SDS011;14817;57.104;-2.094;2023-04-06T00:01:31;50.42;;;19.88;;
27333;SDS011;14817;57.104;-2.094;2023-04-06T00:03:58;35.40;;;18.40;;
27333;SDS011;14817;57.104;-2.094;2023-04-06T00:06:24;39.58;;;19.17;;
27333;SDS011;14817;57.104;-2.094;2023-04-06T00:08:51;36.78;;;19.08;;
27333;SDS011;14817;57.104;-2.094;2023-04-06T00:11:18;31.67;;;17.45;;
27333;SDS011;14817;57.104;-2.094;2023-04-06T00:13:44;35.38;;;18.77;;
27333;SDS011;14817;57.104;-2.094;2023-04-06T00:16:11;34.80;;;19.60;;
27333;SDS011;14817;57.104;-2.094;2023-04-06T00:18:38;33.45;;;18.02;;
27333;SDS011;14817;57.104;-2.094;2023-04-06T00:21:04;33.42;;;19.02;;
27333;SDS011;14817;57.104;-2.094;2023-04-06T00:23:31;37.13;;;20.60;;
27333;SDS011;14817;57.104;-2.094;2023-04-06T00:25:58;39.58;;;21.52;;
27333;SDS011;14817;57.104;-2.094;2023-04-06T00:28:24;37.78;;;22.02;;
27333;SDS011;14817;57.104;-2.094;2023-04-06T00:30:56;30.17;;;17.50;;
27333;SDS011;14817;57.104;-2.094;2023-04-06T00:33:23;32.13;;;21.15;;
27333;SDS011;14817;57.104;-2.094;2023-04-06T00:35:50;28.48;;;18.25;;
27333;SDS011;14817;57.104;-2.094;2023-04-06T00:38:17;30.98;;;19.33;;
27333;SDS011;14817;57.104;-2.094;2023-04-06T00:40:43;26.42;;;18.85;;
27333;SDS011;14817;57.104;-2.094;2023-04-06T00:43:13;28.48;;;18.35;;
27333;SDS011;14817;57.104;-2.094;2023-04-06T00:45:40;26.38;;;17.15;;
27333;SDS011;14817;57.104;-2.094;2023-04-06T00:48:08;20.55;;;14.88;;
27333;SDS011;14817;57.104;-2.094;2023-04-06T00:50:35;22.63;;;15.82;;
27333;SDS011;14817;57.104;-2.094;2023-04-06T00:53:01;22.08;;;14.60;;
27333;SDS011;14817;57.104;-2.094;2023-04-06T00:55:29;23.23;;;15.57;;
27333;SDS011;14817;57.104;-2.094;2023-04-06T00:57:58;22.52;;;14.38;;
27333;SDS011;14817;57.104;-2.094;2023-04-06T01:00:26;21.65;;;14.50;;
27333;SDS011;14817;57.104;-2.094;2023-04-06T01:02:57;20.55;;;13.88;;
27333;SDS011;14817;57.104;-2.094;2023-04-06T01:05:35;19.65;;;13.70;;
27333;SDS011;14817;57.104;-2.094;2023-04-06T01:08:12;33.35;;;17.05;;
27333;SDS011;14817;57.104;-2.094;2023-04-06T01:10:39;41.15;;;19.75;;
27333;SDS011;14817;57.104;-2.094;2023-04-06T01:13:21;40.65;;;20.85;;
27333;SDS011;14817;57.104;-2.094;2023-04-06T01:15:52;54.50;;;21.98;;
27333;SDS011;14817;57.104;-2.094;2023-04-06T01:18:26;44.55;;;21.88;;
27333;SDS011;14817;57.104;-2.094;2023-04-06T01:21:08;41.88;;;20.95;;
27333;SDS011;14817;57.104;-2.094;2023-04-06T01:23:35;43.58;;;20.92;;
27333;SDS011;14817;57.104;-2.094;2023-04-06T01:26:02;37.35;;;19.80;;
27333;SDS011;14817;57.104;-2.094;2023-04-06T01:28:30;45.25;;;21.27;;
27333;SDS011;14817;57.104;-2.094;2023-04-06T01:31:08;41.17;;;19.42;;
27333;SDS011;14817;57.104;-2.094;2023-04-06T01:33:42;35.40;;;18.80;;
27333;SDS011;14817;57.104;-2.094;2023-04-06T01:36:13;27.65;;;16.45;;
27333;SDS011;14817;57.104;-2.094;2023-04-06T01:38:41;28.02;;;15.88;;
27333;SDS011;14817;57.104;-2.094;2023-04-06T01:41:09;29.73;;;17.55;;
27333;SDS011;14817;57.104;-2.094;2023-04-06T01:43:46;32.15;;;19.50;;
27333;SDS011;14817;57.104;-2.094;2023-04-06T01:46:13;31.30;;;18.73;;
27333;SDS011;14817;57.104;-2.094;2023-04-06T01:48:42;30.38;;;17.33;;
27333;SDS011;14817;57.104;-2.094;2023-04-06T01:51:31;28.60;;;17.75;;
27333;SDS011;14817;57.104;-2.094;2023-04-06T01:54:00;31.73;;;18.80;;
27333;SDS011;14817;57.104;-2.094;2023-04-06T01:56:43;31.60;;;19.00;;
27333;SDS011;14817;57.104;-2.094;2023-04-06T01:59:22;33.10;;;21.48;;
27333;SDS011;14817;57.104;-2.094;2023-04-06T02:01:49;30.67;;;20.27;;
27333;SDS011;14817;57.104;-2.094;2023-04-06T02:04:17;27.77;;;18.27;;
27333;SDS011;14817;57.104;-2.094;2023-04-06T02:06:46;38.33;;;18.67;;
27333;SDS011;14817;57.104;-2.094;2023-04-06T02:09:15;36.67;;;16.27;;
27333;SDS011;14817;57.104;-2.094;2023-04-06T02:11:42;39.30;;;13.65;;
27333;SDS011;14817;57.104;-2.094;2023-04-06T02:14:08;47.47;;;13.55;;
27333;SDS011;14817;57.104;-2.094;2023-04-06T02:16:40;61.83;;;13.55;;
27333;SDS011;14817;57.104;-2.094;2023-04-06T02:19:07;35.28;;;12.02;;
27333;SDS011;14817;57.104;-2.094;2023-04-06T02:21:34;23.55;;;11.15;;
27333;SDS011;14817;57.104;-2.094;2023-04-06T02:24:01;17.27;;;9.50;;
27333;SDS011;14817;57.104;-2.094;2023-04-06T02:26:28;14.60;;;8.32;;
27333;SDS011;14817;57.104;-2.094;2023-04-06T02:28:54;13.80;;;8.85;;
27333;SDS011;14817;57.104;-2.094;2023-04-06T02:31:21;19.77;;;10.40;;
27333;SDS011;14817;57.104;-2.094;2023-04-06T02:33:49;18.17;;;9.75;;
27333;SDS011;14817;57.104;-2.094;2023-04-06T02:36:16;19.80;;;11.02;;
27333;SDS011;14817;57.104;-2.094;2023-04-06T02:38:43;18.27;;;10.30;;
27333;SDS011;14817;57.104;-2.094;2023-04-06T02:41:10;25.42;;;15.05;;
27333;SDS011;14817;57.104;-2.094;2023-04-06T02:43:37;20.85;;;12.82;;
27333;SDS011;14817;57.104;-2.094;2023-04-06T02:46:11;22.20;;;12.80;;
27333;SDS011;14817;57.104;-2.094;2023-04-06T02:48:38;24.02;;;12.57;;
27333;SDS011;14817;57.104;-2.094;2023-04-06T02:51:05;26.95;;;15.15;;
27333;SDS011;14817;57.104;-2.094;2023-04-06T02:53:32;32.90;;;18.02;;
27333;SDS011;14817;57.104;-2.094;2023-04-06T02:55:59;25.52;;;15.40;;
27333;SDS011;14817;57.104;-2.094;2023-04-06T02:58:40;28.05;;;15.70;;
27333;SDS011;14817;57.104;-2.094;2023-04-06T03:01:06;29.00;;;15.90;;
27333;SDS011;14817;57.104;-2.094;2023-04-06T03:03:34;23.48;;;14.57;;
27333;SDS011;14817;57.104;-2.094;2023-04-06T03:08:32;24.52;;;13.75;;
27333;SDS011;14817;57.104;-2.094;2023-04-06T03:10:59;22.73;;;13.15;;
27333;SDS011;14817;57.104;-2.094;2023-04-06T03:13:34;27.88;;;15.48;;
27333;SDS011;14817;57.104;-2.094;2023-04-06T03:16:00;26.52;;;15.93;;
27333;SDS011;14817;57.104;-2.094;2023-04-06T03:18:28;26.15;;;13.77;;
27333;SDS011;14817;57.104;-2.094;2023-04-06T03:20:56;25.55;;;14.60;;
27333;SDS011;14817;57.104;-2.094;2023-04-06T03:23:29;29.45;;;14.68;;
27333;SDS011;14817;57.104;-2.094;2023-04-06T03:25:58;31.95;;;17.25;;
27333;SDS011;14817;57.104;-2.094;2023-04-06T03:28:25;32.70;;;17.27;;
27333;SDS011;14817;57.104;-2.094;2023-04-06T03:30:58;31.15;;;17.35;;
27333;SDS011;14817;57.104;-2.094;2023-04-06T03:33:49;31.30;;;17.60;;
27333;SDS011;14817;57.104;-2.094;2023-04-06T03:36:24;29.25;;;16.33;;
27333;SDS011;14817;57.104;-2.094;2023-04-06T03:38:53;36.08;;;18.00;;
27333;SDS011;14817;57.104;-2.094;2023-04-06T03:41:20;33.97;;;18.48;;
27333;SDS011;14817;57.104;-2.094;2023-04-06T03:43:57;32.83;;;16.50;;
27333;SDS011;14817;57.104;-2.094;2023-04-06T03:46:24;30.45;;;15.45;;
27333;SDS011;14817;57.104;-2.094;2023-04-06T03:48:53;30.08;;;16.58;;
27333;SDS011;14817;57.104;-2.094;2023-04-06T03:51:22;30.88;;;17.67;;
27333;SDS011;14817;57.104;-2.094;2023-04-06T03:53:49;32.65;;;15.68;;
27333;SDS011;14817;57.104;-2.094;2023-04-06T03:56:16;27.67;;;14.55;;
27333;SDS011;14817;57.104;-2.094;2023-04-06T03:58:42;29.75;;;16.52;;
27333;SDS011;14817;57.104;-2.094;2023-04-06T04:01:11;25.77;;;14.07;;
27333;SDS011;14817;57.104;-2.094;2023-04-06T04:03:38;27.65;;;14.57;;
27333;SDS011;14817;57.104;-2.094;2023-04-06T04:06:05;30.33;;;16.15;;
27333;SDS011;14817;57.104;-2.094;2023-04-06T04:08:32;36.10;;;17.48;;
27333;SDS011;14817;57.104;-2.094;2023-04-06T04:11:00;38.35;;;18.25;;
27333;SDS011;14817;57.104;-2.094;2023-04-06T04:13:27;33.42;;;17.50;;
27333;SDS011;14817;57.104;-2.094;2023-04-06T04:15:55;35.88;;;18.20;;
27333;SDS011;14817;57.104;-2.094;2023-04-06T04:18:21;33.38;;;18.95;;
27333;SDS011;14817;57.104;-2.094;2023-04-06T04:20:48;31.60;;;17.80;;
27333;SDS011;14817;57.104;-2.094;2023-04-06T04:23:15;34.83;;;17.35;;
27333;SDS011;14817;57.104;-2.094;2023-04-06T04:25:42;40.38;;;21.23;;
27333;SDS011;14817;57.104;-2.094;2023-04-06T04:28:09;35.47;;;17.88;;
27333;SDS011;14817;57.104;-2.094;2023-04-06T04:30:40;35.30;;;19.23;;
27333;SDS011;14817;57.104;-2.094;2023-04-06T04:33:09;31.00;;;16.50;;
27333;SDS011;14817;57.104;-2.094;2023-04-06T04:35:36;37.05;;;18.45;;
27333;SDS011;14817;57.104;-2.094;2023-04-06T04:38:04;31.38;;;16.33;;
27333;SDS011;14817;57.104;-2.094;2023-04-06T04:40:33;32.08;;;17.20;;
27333;SDS011;14817;57.104;-2.094;2023-04-06T04:43:05;33.13;;;16.38;;
27333;SDS011;14817;57.104;-2.094;2023-04-06T04:45:33;28.60;;;15.15;;
27333;SDS011;14817;57.104;-2.094;2023-04-06T04:48:23;33.50;;;17.08;;
27333;SDS011;14817;57.104;-2.094;2023-04-06T04:50:55;33.28;;;16.65;;
27333;SDS011;14817;57.104;-2.094;2023-04-06T04:53:26;31.15;;;16.75;;
27333;SDS011;14817;57.104;-2.094;2023-04-06T04:55:59;31.63;;;16.80;;
27333;SDS011;14817;57.104;-2.094;2023-04-06T04:58:26;32.67;;;17.30;;
27333;SDS011;14817;57.104;-2.094;2023-04-06T05:00:56;34.58;;;16.35;;
27333;SDS011;14817;57.104;-2.094;2023-04-06T05:03:23;22.42;;;12.60;;
27333;SDS011;14817;57.104;-2.094;2023-04-06T05:06:00;33.25;;;17.02;;
27333;SDS011;14817;57.104;-2.094;2023-04-06T05:08:31;23.00;;;12.75;;
27333;SDS011;14817;57.104;-2.094;2023-04-06T05:10:59;21.35;;;12.50;;
27333;SDS011;14817;57.104;-2.094;2023-04-06T05:13:29;23.23;;;12.68;;
27333;SDS011;14817;57.104;-2.094;2023-04-06T05:15:57;17.63;;;10.75;;
27333;SDS011;14817;57.104;-2.094;2023-04-06T05:18:29;17.10;;;9.32;;
27333;SDS011;14817;57.104;-2.094;2023-04-06T05:20:57;13.48;;;7.85;;
27333;SDS011;14817;57.104;-2.094;2023-04-06T05:23:36;14.88;;;8.38;;
27333;SDS011;14817;57.104;-2.094;2023-04-06T05:26:02;14.60;;;8.18;;
27333;SDS011;14817;57.104;-2.094;2023-04-06T05:28:29;13.07;;;6.72;;
27333;SDS011;14817;57.104;-2.094;2023-04-06T05:30:56;12.40;;;6.05;;
27333;SDS011;14817;57.104;-2.094;2023-04-06T05:33:25;12.38;;;6.25;;
27333;SDS011;14817;57.104;-2.094;2023-04-06T05:36:00;8.48;;;5.05;;
27333;SDS011;14817;57.104;-2.094;2023-04-06T05:38:27;7.85;;;4.78;;
27333;SDS011;14817;57.104;-2.094;2023-04-06T05:40:59;7.65;;;3.97;;
27333;SDS011;14817;57.104;-2.094;2023-04-06T05:43:30;8.75;;;4.38;;
27333;SDS011;14817;57.104;-2.094;2023-04-06T05:45:58;8.77;;;4.20;;
27333;SDS011;14817;57.104;-2.094;2023-04-06T05:48:25;9.20;;;4.55;;
27333;SDS011;14817;57.104;-2.094;2023-04-06T05:50:52;9.30;;;4.60;;
27333;SDS011;14817;57.104;-2.094;2023-04-06T05:53:25;7.00;;;3.92;;
27333;SDS011;14817;57.104;-2.094;2023-04-06T05:55:56;8.20;;;3.72;;
27333;SDS011;14817;57.104;-2.094;2023-04-06T05:58:23;9.10;;;4.20;;
27333;SDS011;14817;57.104;-2.094;2023-04-06T06:00:56;6.20;;;3.83;;
27333;SDS011;14817;57.104;-2.094;2023-04-06T06:03:23;8.43;;;4.10;;
27333;SDS011;14817;57.104;-2.094;2023-04-06T06:05:53;5.82;;;3.05;;
27333;SDS011;14817;57.104;-2.094;2023-04-06T06:08:28;5.95;;;3.63;;
27333;SDS011;14817;57.104;-2.094;2023-04-06T06:10:56;7.70;;;3.88;;
27333;SDS011;14817;57.104;-2.094;2023-04-06T06:13:24;7.07;;;3.60;;
27333;SDS011;14817;57.104;-2.094;2023-04-06T06:15:51;8.57;;;4.60;;
27333;SDS011;14817;57.104;-2.094;2023-04-06T06:18:20;11.07;;;5.10;;
27333;SDS011;14817;57.104;-2.094;2023-04-06T06:20:49;7.70;;;5.03;;
27333;SDS011;14817;57.104;-2.094;2023-04-06T06:23:16;8.50;;;5.07;;
27333;SDS011;14817;57.104;-2.094;2023-04-06T06:25:43;7.43;;;4.07;;
27333;SDS011;14817;57.104;-2.094;2023-04-06T06:28:09;7.57;;;4.40;;
27333;SDS011;14817;57.104;-2.094;2023-04-06T06:30:36;6.55;;;3.88;;
27333;SDS011;14817;57.104;-2.094;2023-04-06T06:33:03;7.95;;;4.47;;
27333;SDS011;14817;57.104;-2.094;2023-04-06T06:35:30;9.25;;;4.13;;
27333;SDS011;14817;57.104;-2.094;2023-04-06T06:38:01;11.77;;;5.07;;
27333;SDS011;14817;57.104;-2.094;2023-04-06T06:40:27;9.00;;;5.32;;
27333;SDS011;14817;57.104;-2.094;2023-04-06T06:42:55;8.35;;;4.43;;
27333;SDS011;14817;57.104;-2.094;2023-04-06T06:45:41;6.70;;;3.22;;
27333;SDS011;14817;57.104;-2.094;2023-04-06T06:48:08;6.03;;;2.40;;
27333;SDS011;14817;57.104;-2.094;2023-04-06T06:50:36;2.80;;;1.83;;
27333;SDS011;14817;57.104;-2.094;2023-04-06T06:53:04;4.85;;;1.50;;
27333;SDS011;14817;57.104;-2.094;2023-04-06T06:55:30;2.53;;;1.38;;
27333;SDS011;14817;57.104;-2.094;2023-04-06T06:57:57;3.15;;;1.40;;
27333;SDS011;14817;57.104;-2.094;2023-04-06T07:00:23;3.72;;;1.00;;
27333;SDS011;14817;57.104;-2.094;2023-04-06T07:02:51;2.03;;;0.88;;
27333;SDS011;14817;57.104;-2.094;2023-04-06T07:05:18;3.15;;;1.08;;
27333;SDS011;14817;57.104;-2.094;2023-04-06T07:07:55;2.78;;;0.90;;
27333;SDS011;14817;57.104;-2.094;2023-04-06T07:10:22;5.07;;;0.80;;
27333;SDS011;14817;57.104;-2.094;2023-04-06T07:12:49;2.90;;;0.70;;
27333;SDS011;14817;57.104;-2.094;2023-04-06T07:15:16;2.25;;;0.77;;
27333;SDS011;14817;57.104;-2.094;2023-04-06T07:17:43;3.35;;;0.88;;
27333;SDS011;14817;57.104;-2.094;2023-04-06T07:20:12;2.03;;;0.82;;
27333;SDS011;14817;57.104;-2.094;2023-04-06T07:22:39;3.90;;;0.82;;
27333;SDS011;14817;57.104;-2.094;2023-04-06T07:25:06;7.65;;;1.15;;
27333;SDS011;14817;57.104;-2.094;2023-04-06T07:27:33;1.75;;;0.60;;
27333;SDS011;14817;57.104;-2.094;2023-04-06T07:30:01;2.38;;;0.68;;
27333;SDS011;14817;57.104;-2.094;2023-04-06T07:32:27;3.83;;;0.95;;
27333;SDS011;14817;57.104;-2.094;2023-04-06T07:34:55;3.45;;;1.08;;
27333;SDS011;14817;57.104;-2.094;2023-04-06T07:37:22;3.05;;;0.68;;
27333;SDS011;14817;57.104;-2.094;2023-04-06T07:39:48;2.58;;;0.80;;
27333;SDS011;14817;57.104;-2.094;2023-04-06T07:42:17;2.25;;;0.80;;
27333;SDS011;14817;57.104;-2.094;2023-04-06T07:44:45;6.20;;;1.70;;
27333;SDS011;14817;57.104;-2.094;2023-04-06T07:47:12;2.88;;;1.60;;
27333;SDS011;14817;57.104;-2.094;2023-04-06T07:49:38;2.22;;;1.30;;
27333;SDS011;14817;57.104;-2.094;2023-04-06T07:52:05;3.58;;;1.20;;
27333;SDS011;14817;57.104;-2.094;2023-04-06T07:54:32;1.35;;;0.80;;
27333;SDS011;14817;57.104;-2.094;2023-04-06T07:56:59;2.63;;;0.80;;
27333;SDS011;14817;57.104;-2.094;2023-04-06T07:59:25;2.40;;;0.70;;
27333;SDS011;14817;57.104;-2.094;2023-04-06T08:01:52;3.10;;;0.90;;
27333;SDS011;14817;57.104;-2.094;2023-04-06T08:04:19;3.30;;;0.70;;
27333;SDS011;14817;57.104;-2.094;2023-04-06T08:06:46;1.85;;;0.60;;
27333;SDS011;14817;57.104;-2.094;2023-04-06T08:09:13;4.20;;;1.30;;
27333;SDS011;14817;57.104;-2.094;2023-04-06T08:11:39;2.72;;;0.63;;
27333;SDS011;14817;57.104;-2.094;2023-04-06T08:14:06;2.20;;;1.17;;
27333;SDS011;14817;57.104;-2.094;2023-04-06T08:16:33;3.35;;;0.75;;
27333;SDS011;14817;57.104;-2.094;2023-04-06T08:19:00;1.48;;;0.40;;
27333;SDS011;14817;57.104;-2.094;2023-04-06T08:21:26;6.32;;;1.00;;
27333;SDS011;14817;57.104;-2.094;2023-04-06T08:23:53;2.40;;;0.77;;
27333;SDS011;14817;57.104;-2.094;2023-04-06T08:26:20;2.15;;;0.40;;
27333;SDS011;14817;57.104;-2.094;2023-04-06T08:28:47;3.35;;;0.65;;
27333;SDS011;14817;57.104;-2.094;2023-04-06T08:31:13;5.13;;;0.70;;
27333;SDS011;14817;57.104;-2.094;2023-04-06T08:33:40;1.75;;;0.52;;
27333;SDS011;14817;57.104;-2.094;2023-04-06T08:36:10;1.45;;;0.60;;
27333;SDS011;14817;57.104;-2.094;2023-04-06T08:38:37;2.08;;;0.50;;
27333;SDS011;14817;57.104;-2.094;2023-04-06T08:41:08;0.68;;;0.40;;
27333;SDS011;14817;57.104;-2.094;2023-04-06T08:43:36;2.03;;;0.50;;
27333;SDS011;14817;57.104;-2.094;2023-04-06T08:46:07;0.80;;;0.47;;
27333;SDS011;14817;57.104;-2.094;2023-04-06T08:48:34;3.40;;;0.60;;
27333;SDS011;14817;57.104;-2.094;2023-04-06T08:51:01;1.05;;;0.30;;
27333;SDS011;14817;57.104;-2.094;2023-04-06T08:53:28;1.83;;;0.50;;
27333;SDS011;14817;57.104;-2.094;2023-04-06T08:55:55;2.97;;;0.60;;
27333;SDS011;14817;57.104;-2.094;2023-04-06T08:58:24;4.50;;;0.90;;
27333;SDS011;14817;57.104;-2.094;2023-04-06T09:01:06;2.05;;;0.70;;
27333;SDS011;14817;57.104;-2.094;2023-04-06T09:03:33;2.22;;;1.00;;
27333;SDS011;14817;57.104;-2.094;2023-04-06T09:06:02;1.08;;;0.50;;
27333;SDS011;14817;57.104;-2.094;2023-04-06T09:08:30;0.40;;;0.40;;
27333;SDS011;14817;57.104;-2.094;2023-04-06T09:10:57;2.10;;;0.52;;
27333;SDS011;14817;57.104;-2.094;2023-04-06T09:13:23;3.10;;;0.52;;
27333;SDS011;14817;57.104;-2.094;2023-04-06T09:16:00;2.13;;;0.70;;
27333;SDS011;14817;57.104;-2.094;2023-04-06T09:18:28;1.23;;;0.70;;
27333;SDS011;14817;57.104;-2.094;2023-04-06T09:21:02;2.72;;;0.77;;
27333;SDS011;14817;57.104;-2.094;2023-04-06T09:23:29;2.25;;;0.70;;
27333;SDS011;14817;57.104;-2.094;2023-04-06T09:29:08;1.23;;;0.77;;
27333;SDS011;14817;57.104;-2.094;2023-04-06T09:31:28;4.18;;;0.50;;
27333;SDS011;14817;57.104;-2.094;2023-04-06T09:33:56;2.97;;;0.82;;
27333;SDS011;14817;57.104;-2.094;2023-04-06T09:36:30;1.50;;;0.63;;
27333;SDS011;14817;57.104;-2.094;2023-04-06T09:38:58;2.08;;;0.40;;
27333;SDS011;14817;57.104;-2.094;2023-04-06T09:41:25;3.75;;;0.90;;
27333;SDS011;14817;57.104;-2.094;2023-04-06T09:44:00;1.30;;;0.47;;
27333;SDS011;14817;57.104;-2.094;2023-04-06T09:46:27;5.10;;;0.50;;
27333;SDS011;14817;57.104;-2.094;2023-04-06T09:49:06;1.48;;;0.43;;
27333;SDS011;14817;57.104;-2.094;2023-04-06T09:51:37;1.80;;;0.43;;
27333;SDS011;14817;57.104;-2.094;2023-04-06T09:54:05;1.95;;;0.50;;
27333;SDS011;14817;57.104;-2.094;2023-04-06T09:56:45;1.33;;;0.52;;
27333;SDS011;14817;57.104;-2.094;2023-04-06T09:59:13;1.90;;;0.47;;
27333;SDS011;14817;57.104;-2.094;2023-04-06T10:01:40;1.95;;;0.70;;
27333;SDS011;14817;57.104;-2.094;2023-04-06T10:04:09;2.17;;;0.50;;
27333;SDS011;14817;57.104;-2.094;2023-04-06T10:06:40;4.07;;;0.70;;
27333;SDS011;14817;57.104;-2.094;2023-04-06T10:09:07;3.10;;;0.60;;
27333;SDS011;14817;57.104;-2.094;2023-04-06T10:11:34;1.33;;;0.75;;
27333;SDS011;14817;57.104;-2.094;2023-04-06T10:14:01;1.98;;;0.60;;
27333;SDS011;14817;57.104;-2.094;2023-04-06T10:16:27;1.38;;;0.40;;
27333;SDS011;14817;57.104;-2.094;2023-04-06T10:19:02;1.48;;;0.40;;
27333;SDS011;14817;57.104;-2.094;2023-04-06T10:21:31;2.55;;;0.68;;
27333;SDS011;14817;57.104;-2.094;2023-04-06T10:23:59;3.70;;;0.70;;
27333;SDS011;14817;57.104;-2.094;2023-04-06T10:26:26;0.60;;;0.30;;
27333;SDS011;14817;57.104;-2.094;2023-04-06T10:28:53;5.13;;;0.50;;
27333;SDS011;14817;57.104;-2.094;2023-04-06T10:31:25;4.20;;;0.52;;
27333;SDS011;14817;57.104;-2.094;2023-04-06T10:33:56;4.25;;;0.50;;
27333;SDS011;14817;57.104;-2.094;2023-04-06T10:36:24;0.97;;;0.53;;
27333;SDS011;14817;57.104;-2.094;2023-04-06T10:38:56;6.80;;;0.80;;
27333;SDS011;14817;57.104;-2.094;2023-04-06T10:43:55;2.67;;;0.60;;
27333;SDS011;14817;57.104;-2.094;2023-04-06T10:46:26;3.10;;;0.70;;
27333;SDS011;14817;57.104;-2.094;2023-04-06T10:48:52;2.05;;;0.55;;
27333;SDS011;14817;57.104;-2.094;2023-04-06T10:51:19;3.45;;;0.85;;
27333;SDS011;14817;57.104;-2.094;2023-04-06T10:53:50;5.75;;;0.75;;
27333;SDS011;14817;57.104;-2.094;2023-04-06T10:56:21;3.83;;;1.08;;
27333;SDS011;14817;57.104;-2.094;2023-04-06T10:58:48;4.70;;;1.15;;
27333;SDS011;14817;57.104;-2.094;2023-04-06T11:01:16;1.75;;;0.50;;
27333;SDS011;14817;57.104;-2.094;2023-04-06T11:03:47;6.55;;;0.85;;
27333;SDS011;14817;57.104;-2.094;2023-04-06T11:06:17;2.55;;;0.60;;
27333;SDS011;14817;57.104;-2.094;2023-04-06T11:08:44;3.77;;;0.60;;
27333;SDS011;14817;57.104;-2.094;2023-04-06T11:11:12;3.58;;;0.75;;
27333;SDS011;14817;57.104;-2.094;2023-04-06T11:13:43;2.65;;;0.60;;
27333;SDS011;14817;57.104;-2.094;2023-04-06T11:16:20;2.22;;;0.60;;
27333;SDS011;14817;57.104;-2.094;2023-04-06T11:18:56;3.47;;;1.02;;
27333;SDS011;14817;57.104;-2.094;2023-04-06T11:21:33;3.05;;;0.70;;
27333;SDS011;14817;57.104;-2.094;2023-04-06T11:24:07;3.28;;;0.70;;
27333;SDS011;14817;57.104;-2.094;2023-04-06T11:29:15;3.13;;;0.95;;
27333;SDS011;14817;57.104;-2.094;2023-04-06T11:31:44;3.55;;;1.08;;
27333;SDS011;14817;57.104;-2.094;2023-04-06T11:34:21;5.03;;;0.68;;
27333;SDS011;14817;57.104;-2.094;2023-04-06T11:36:49;2.70;;;1.42;;
27333;SDS011;14817;57.104;-2.094;2023-04-06T11:39:21;3.20;;;0.70;;
27333;SDS011;14817;57.104;-2.094;2023-04-06T11:41:51;2.92;;;0.80;;
27333;SDS011;14817;57.104;-2.094;2023-04-06T11:47:05;4.00;;;0.90;;
27333;SDS011;14817;57.104;-2.094;2023-04-06T11:49:33;4.32;;;0.88;;
27333;SDS011;14817;57.104;-2.094;2023-04-06T11:52:00;3.50;;;0.75;;
27333;SDS011;14817;57.104;-2.094;2023-04-06T11:56:57;4.30;;;0.88;;
27333;SDS011;14817;57.104;-2.094;2023-04-06T11:59:23;4.72;;;0.73;;
27333;SDS011;14817;57.104;-2.094;2023-04-06T12:01:50;4.70;;;0.88;;
27333;SDS011;14817;57.104;-2.094;2023-04-06T12:04:18;2.83;;;0.63;;
27333;SDS011;14817;57.104;-2.094;2023-04-06T12:06:45;1.92;;;0.75;;
27333;SDS011;14817;57.104;-2.094;2023-04-06T12:09:12;2.95;;;0.60;;
27333;SDS011;14817;57.104;-2.094;2023-04-06T12:11:38;2.38;;;0.65;;
27333;SDS011;14817;57.104;-2.094;2023-04-06T12:14:05;3.28;;;0.60;;
27333;SDS011;14817;57.104;-2.094;2023-04-06T12:16:34;3.50;;;0.85;;
27333;SDS011;14817;57.104;-2.094;2023-04-06T12:19:00;3.03;;;0.80;;
27333;SDS011;14817;57.104;-2.094;2023-04-06T12:21:27;2.05;;;0.60;;
27333;SDS011;14817;57.104;-2.094;2023-04-06T12:23:54;5.20;;;0.80;;
27333;SDS011;14817;57.104;-2.094;2023-04-06T12:26:21;6.18;;;1.70;;
27333;SDS011;14817;57.104;-2.094;2023-04-06T12:28:48;4.95;;;0.82;;
27333;SDS011;14817;57.104;-2.094;2023-04-06T12:31:15;5.88;;;2.05;;
27333;SDS011;14817;57.104;-2.094;2023-04-06T12:33:42;4.78;;;1.48;;
27333;SDS011;14817;57.104;-2.094;2023-04-06T12:36:11;3.30;;;1.15;;
27333;SDS011;14817;57.104;-2.094;2023-04-06T12:38:39;3.22;;;1.02;;
27333;SDS011;14817;57.104;-2.094;2023-04-06T12:41:07;3.05;;;0.95;;
27333;SDS011;14817;57.104;-2.094;2023-04-06T12:43:34;3.60;;;0.93;;
27333;SDS011;14817;57.104;-2.094;2023-04-06T12:46:00;2.65;;;0.90;;
27333;SDS011;14817;57.104;-2.094;2023-04-06T12:48:27;4.43;;;0.68;;
27333;SDS011;14817;57.104;-2.094;2023-04-06T12:50:54;7.10;;;1.40;;
27333;SDS011;14817;57.104;-2.094;2023-04-06T12:53:21;4.03;;;0.73;;
27333;SDS011;14817;57.104;-2.094;2023-04-06T12:55:48;4.43;;;1.00;;
27333;SDS011;14817;57.104;-2.094;2023-04-06T12:58:15;2.33;;;1.17;;
27333;SDS011;14817;57.104;-2.094;2023-04-06T13:00:43;4.22;;;0.77;;
27333;SDS011;14817;57.104;-2.094;2023-04-06T13:03:09;5.55;;;1.27;;
27333;SDS011;14817;57.104;-2.094;2023-04-06T13:05:43;5.47;;;1.23;;
27333;SDS011;14817;57.104;-2.094;2023-04-06T13:08:09;4.43;;;0.90;;
27333;SDS011;14817;57.104;-2.094;2023-04-06T13:10:36;6.65;;;1.33;;
27333;SDS011;14817;57.104;-2.094;2023-04-06T13:13:03;3.70;;;1.48;;
27333;SDS011;14817;57.104;-2.094;2023-04-06T13:15:31;5.30;;;1.45;;
27333;SDS011;14817;57.104;-2.094;2023-04-06T13:17:58;5.75;;;1.02;;
27333;SDS011;14817;57.104;-2.094;2023-04-06T13:20:25;4.82;;;0.90;;
27333;SDS011;14817;57.104;-2.094;2023-04-06T13:22:51;5.40;;;0.73;;
27333;SDS011;14817;57.104;-2.094;2023-04-06T13:25:18;4.68;;;1.40;;
27333;SDS011;14817;57.104;-2.094;2023-04-06T13:27:45;4.68;;;1.50;;
27333;SDS011;14817;57.104;-2.094;2023-04-06T13:30:14;6.70;;;1.70;;
27333;SDS011;14817;57.104;-2.094;2023-04-06T13:32:43;4.20;;;0.90;;
27333;SDS011;14817;57.104;-2.094;2023-04-06T13:35:09;4.60;;;1.00;;
27333;SDS011;14817;57.104;-2.094;2023-04-06T13:37:36;5.53;;;1.48;;
27333;SDS011;14817;57.104;-2.094;2023-04-06T13:40:03;4.03;;;1.00;;
27333;SDS011;14817;57.104;-2.094;2023-04-06T13:42:31;3.50;;;0.95;;
27333;SDS011;14817;57.104;-2.094;2023-04-06T13:44:58;6.70;;;1.70;;
27333;SDS011;14817;57.104;-2.094;2023-04-06T13:47:25;10.38;;;1.05;;
27333;SDS011;14817;57.104;-2.094;2023-04-06T13:49:53;4.60;;;0.85;;
27333;SDS011;14817;57.104;-2.094;2023-04-06T13:52:20;5.03;;;1.40;;
27333;SDS011;14817;57.104;-2.094;2023-04-06T13:54:46;2.72;;;0.77;;
27333;SDS011;14817;57.104;-2.094;2023-04-06T13:57:13;3.13;;;0.65;;
27333;SDS011;14817;57.104;-2.094;2023-04-06T13:59:39;5.45;;;0.82;;
27333;SDS011;14817;57.104;-2.094;2023-04-06T14:02:07;3.40;;;0.93;;
27333;SDS011;14817;57.104;-2.094;2023-04-06T14:04:34;5.05;;;1.17;;
27333;SDS011;14817;57.104;-2.094;2023-04-06T14:07:02;3.38;;;0.68;;
27333;SDS011;14817;57.104;-2.094;2023-04-06T14:09:29;3.78;;;0.80;;
27333;SDS011;14817;57.104;-2.094;2023-04-06T14:11:56;2.20;;;0.63;;
27333;SDS011;14817;57.104;-2.094;2023-04-06T14:14:23;4.13;;;0.70;;
27333;SDS011;14817;57.104;-2.094;2023-04-06T14:16:50;3.53;;;0.60;;
27333;SDS011;14817;57.104;-2.094;2023-04-06T14:19:17;5.13;;;0.90;;
27333;SDS011;14817;57.104;-2.094;2023-04-06T14:21:44;3.75;;;0.98;;
27333;SDS011;14817;57.104;-2.094;2023-04-06T14:24:12;2.38;;;0.75;;
27333;SDS011;14817;57.104;-2.094;2023-04-06T14:26:40;3.08;;;0.88;;
27333;SDS011;14817;57.104;-2.094;2023-04-06T14:29:07;4.85;;;0.80;;
27333;SDS011;14817;57.104;-2.094;2023-04-06T14:31:35;2.97;;;0.50;;
27333;SDS011;14817;57.104;-2.094;2023-04-06T14:34:02;1.45;;;0.47;;
27333;SDS011;14817;57.104;-2.094;2023-04-06T14:36:32;1.98;;;0.30;;
27333;SDS011;14817;57.104;-2.094;2023-04-06T14:39:04;2.83;;;0.43;;
27333;SDS011;14817;57.104;-2.094;2023-04-06T14:41:31;0.60;;;0.47;;
27333;SDS011;14817;57.104;-2.094;2023-04-06T14:43:58;1.48;;;0.70;;
27333;SDS011;14817;57.104;-2.094;2023-04-06T14:46:24;1.15;;;0.68;;
27333;SDS011;14817;57.104;-2.094;2023-04-06T14:48:54;0.35;;;0.22;;
27333;SDS011;14817;57.104;-2.094;2023-04-06T14:51:23;2.55;;;0.50;;